createdAt,value
2018-05-31T00:02:07.755Z,11.30
2018-05-31T00:04:35.290Z,11.63
2018-05-31T00:07:02.848Z,11.80
2018-05-31T00:09:31.389Z,12.10
2018-05-31T00:11:58.980Z,11.57
2018-05-31T00:14:26.510Z,11.10
2018-05-31T00:16:54.156Z,11.10
2018-05-31T00:19:21.705Z,11.47
2018-05-31T00:21:50.039Z,12.00
2018-05-31T00:24:17.579Z,10.73
2018-05-31T00:26:45.153Z,11.63
2018-05-31T00:29:12.695Z,11.00
2018-05-31T00:31:40.259Z,11.77
2018-05-31T00:34:07.821Z,11.10
2018-05-31T00:36:35.376Z,10.50
2018-05-31T00:39:02.930Z,13.27
2018-05-31T00:41:30.550Z,12.37
2018-05-31T00:43:58.871Z,10.53
2018-05-31T00:46:26.415Z,13.70
2018-05-31T00:48:53.984Z,13.77
2018-05-31T00:51:21.600Z,14.30
2018-05-31T00:53:50.040Z,13.23
2018-05-31T00:56:17.581Z,13.20
2018-05-31T00:58:45.219Z,13.57
2018-05-31T01:01:12.803Z,13.87
2018-05-31T01:03:40.351Z,12.03
2018-05-31T01:06:07.910Z,14.83
2018-05-31T01:08:35.481Z,11.80
2018-05-31T01:11:03.132Z,12.80
2018-05-31T01:13:30.671Z,12.17
2018-05-31T01:15:58.231Z,12.20
2018-05-31T01:18:25.786Z,14.10
2018-05-31T01:20:53.331Z,12.80
2018-05-31T01:23:21.660Z,12.57
2018-05-31T01:25:49.187Z,12.20
2018-05-31T01:28:16.735Z,13.20
2018-05-31T01:30:44.412Z,14.00
2018-05-31T01:33:11.960Z,12.90
2018-05-31T01:35:39.635Z,13.30
2018-05-31T01:38:19.115Z,13.80
2018-05-31T01:40:46.870Z,12.43
2018-05-31T01:43:14.437Z,13.60
2018-05-31T01:45:41.983Z,13.30
2018-05-31T01:48:09.536Z,13.17
2018-05-31T01:50:37.087Z,13.63
2018-05-31T01:53:04.651Z,12.23
2018-05-31T01:55:32.215Z,13.17
2018-05-31T01:57:59.811Z,13.60
2018-05-31T02:00:28.115Z,12.43
2018-05-31T02:02:55.691Z,13.60
2018-05-31T02:05:23.251Z,12.67
2018-05-31T02:07:50.802Z,10.97
2018-05-31T02:10:18.360Z,12.20
2018-05-31T02:12:45.915Z,12.87
2018-05-31T02:15:13.483Z,11.80
2018-05-31T02:17:41.021Z,12.63
2018-05-31T02:20:09.359Z,11.53
2018-05-31T02:22:36.936Z,12.00
2018-05-31T02:25:04.456Z,13.60
2018-05-31T02:27:32.002Z,13.20
2018-05-31T02:29:59.567Z,16.07
2018-05-31T02:32:27.167Z,11.43
2018-05-31T02:34:55.531Z,13.83
2018-05-31T02:37:23.248Z,14.77
2018-05-31T02:39:50.834Z,13.63
2018-05-31T02:42:18.391Z,13.77
2018-05-31T02:44:45.942Z,13.83
2018-05-31T02:47:13.613Z,14.60
2018-05-31T02:49:41.155Z,15.80
2018-05-31T02:52:08.880Z,14.93
2018-05-31T02:54:37.191Z,12.77
2018-05-31T02:57:04.915Z,14.37
2018-05-31T02:59:33.223Z,16.10
2018-05-31T03:02:00.874Z,15.07
2018-05-31T03:04:28.646Z,13.17
2018-05-31T03:06:56.263Z,14.97
2018-05-31T03:09:24.586Z,11.57
2018-05-31T03:11:52.127Z,14.80
2018-05-31T03:14:19.701Z,15.70
2018-05-31T03:16:47.259Z,15.63
2018-05-31T03:19:14.815Z,13.90
2018-05-31T03:21:42.382Z,14.60
2018-05-31T03:24:09.949Z,15.27
2018-05-31T03:26:37.635Z,14.50
2018-05-31T03:29:05.212Z,15.60
2018-05-31T03:31:32.766Z,13.33
2018-05-31T03:34:00.314Z,14.80
2018-05-31T03:36:27.867Z,14.37
2018-05-31T03:38:55.411Z,14.77
2018-05-31T03:41:22.963Z,14.50
2018-05-31T03:43:50.503Z,13.37
2018-05-31T03:46:18.066Z,15.73
2018-05-31T03:48:45.603Z,14.63
2018-05-31T03:51:13.184Z,14.47
2018-05-31T03:53:40.719Z,15.50
2018-05-31T03:56:08.270Z,13.97
2018-05-31T03:58:35.847Z,15.07
2018-05-31T04:01:03.460Z,14.00
2018-05-31T04:03:31.003Z,16.30
2018-05-31T04:05:58.559Z,15.13
2018-05-31T04:08:26.228Z,16.27
2018-05-31T04:10:54.228Z,14.57
2018-05-31T04:13:22.546Z,14.70
2018-05-31T04:15:50.091Z,14.37
2018-05-31T04:18:17.635Z,13.93
2018-05-31T04:20:45.208Z,15.47
2018-05-31T04:23:12.743Z,15.23
2018-05-31T04:25:41.088Z,14.13
2018-05-31T04:28:08.806Z,14.10
2018-05-31T04:30:36.359Z,13.13
2018-05-31T04:33:04.020Z,14.23
2018-05-31T04:35:31.610Z,14.10
2018-05-31T04:37:59.190Z,14.90
2018-05-31T04:40:26.718Z,13.40
2018-05-31T04:42:54.299Z,14.77
2018-05-31T04:45:21.851Z,16.43
2018-05-31T04:47:50.499Z,15.33
2018-05-31T04:50:18.039Z,15.37
2018-05-31T04:52:46.371Z,14.80
2018-05-31T04:55:13.929Z,16.30
2018-05-31T04:57:41.486Z,14.80
2018-05-31T05:00:09.043Z,15.10
2018-05-31T05:02:36.604Z,17.43
2018-05-31T05:05:04.160Z,14.87
2018-05-31T05:07:31.699Z,14.97
2018-05-31T05:09:59.294Z,14.53
2018-05-31T05:12:26.955Z,15.50
2018-05-31T05:14:54.515Z,14.80
2018-05-31T05:17:23.567Z,15.00
2018-05-31T05:19:51.135Z,15.67
2018-05-31T05:22:18.690Z,17.50
2018-05-31T05:24:46.267Z,15.60
2018-05-31T05:27:13.832Z,16.40
2018-05-31T05:29:41.464Z,15.33
2018-05-31T05:32:09.010Z,14.43
2018-05-31T05:34:36.726Z,16.40
2018-05-31T05:37:04.331Z,15.93
2018-05-31T05:39:31.886Z,16.30
2018-05-31T05:41:59.431Z,15.37
2018-05-31T05:44:27.798Z,15.83
2018-05-31T05:46:56.128Z,13.37
2018-05-31T05:49:23.667Z,15.33
2018-05-31T05:51:51.276Z,16.83
2018-05-31T05:54:18.854Z,15.90
2018-05-31T05:56:47.155Z,16.43
2018-05-31T05:59:14.711Z,15.80
2018-05-31T06:01:42.263Z,14.17
2018-05-31T06:04:10.752Z,14.60
2018-05-31T06:06:39.096Z,14.67
2018-05-31T06:09:06.710Z,15.57
2018-05-31T06:11:34.319Z,15.53
2018-05-31T06:14:02.023Z,16.03
2018-05-31T06:16:30.326Z,15.00
2018-05-31T06:18:57.864Z,10.77
2018-05-31T06:21:25.432Z,10.80
2018-05-31T06:23:52.998Z,9.02
2018-05-31T06:26:20.592Z,13.93
2018-05-31T06:28:48.128Z,11.93
2018-05-31T06:31:15.696Z,8.60
2018-05-31T06:33:43.252Z,13.27
2018-05-31T06:36:10.814Z,13.93
2018-05-31T06:38:38.377Z,15.07
2018-05-31T06:41:06.805Z,9.40
2018-05-31T06:43:34.346Z,7.87
2018-05-31T06:46:01.907Z,8.70
2018-05-31T06:48:29.459Z,12.67
2018-05-31T06:50:57.800Z,15.70
2018-05-31T06:53:25.338Z,14.27
2018-05-31T06:55:52.892Z,16.10
2018-05-31T06:58:20.456Z,16.17
2018-05-31T07:00:48.075Z,14.50
2018-05-31T07:03:16.676Z,16.40
2018-05-31T07:05:44.228Z,10.87
2018-05-31T07:08:11.770Z,14.87
2018-05-31T07:10:40.092Z,16.17
2018-05-31T07:13:07.742Z,15.83
2018-05-31T07:15:35.296Z,17.15
2018-05-31T07:18:02.842Z,15.63
2018-05-31T07:20:30.426Z,16.73
2018-05-31T07:22:57.992Z,15.90
2018-05-31T07:25:25.546Z,14.70
2018-05-31T07:27:53.079Z,17.27
2018-05-31T07:30:20.805Z,14.90
2018-05-31T07:32:48.358Z,15.73
2018-05-31T07:35:15.918Z,14.63
2018-05-31T07:37:43.567Z,16.10
2018-05-31T07:40:11.128Z,15.47
2018-05-31T07:42:38.838Z,15.10
2018-05-31T07:45:06.431Z,11.30
2018-05-31T07:47:34.062Z,11.70
2018-05-31T07:50:01.707Z,12.30
2018-05-31T07:52:30.096Z,12.93
2018-05-31T07:54:57.670Z,12.40
2018-05-31T07:57:25.227Z,12.80
2018-05-31T07:59:52.812Z,13.00
2018-05-31T08:02:20.388Z,12.93
2018-05-31T08:04:48.080Z,12.80
2018-05-31T08:07:15.655Z,13.80
2018-05-31T08:09:43.213Z,15.37
2018-05-31T08:12:10.786Z,13.17
2018-05-31T08:14:38.448Z,11.43
2018-05-31T08:17:06.019Z,8.97
2018-05-31T08:19:33.596Z,13.80
2018-05-31T08:22:01.188Z,9.10
2018-05-31T08:24:29.543Z,12.50
2018-05-31T08:26:57.091Z,12.43
2018-05-31T08:29:24.683Z,10.97
2018-05-31T08:31:53.116Z,11.80
2018-05-31T08:34:20.666Z,13.57
2018-05-31T08:36:48.247Z,13.30
2018-05-31T08:39:15.796Z,14.97
2018-05-31T08:41:43.370Z,12.80
2018-05-31T08:44:10.991Z,11.17
2018-05-31T08:46:39.274Z,13.00
2018-05-31T08:49:06.863Z,13.47
2018-05-31T08:51:34.447Z,13.10
2018-05-31T08:54:03.043Z,15.43
2018-05-31T08:56:31.386Z,14.60
2018-05-31T08:58:58.927Z,14.90
2018-05-31T09:01:26.495Z,16.13
2018-05-31T09:03:54.079Z,15.77
2018-05-31T09:06:22.523Z,16.57
2018-05-31T09:08:50.136Z,11.43
2018-05-31T09:11:18.455Z,14.63
2018-05-31T09:13:46.023Z,12.53
2018-05-31T09:16:13.551Z,14.97
2018-05-31T09:18:41.147Z,17.07
2018-05-31T09:21:08.682Z,13.80
2018-05-31T09:23:36.260Z,12.40
2018-05-31T09:26:03.809Z,17.43
2018-05-31T09:28:31.419Z,15.00
2018-05-31T09:30:58.947Z,15.83
2018-05-31T09:33:26.509Z,17.80
2018-05-31T09:35:54.247Z,15.17
2018-05-31T09:38:21.809Z,15.73
2018-05-31T09:40:49.467Z,16.77
2018-05-31T09:43:17.051Z,12.30
2018-05-31T09:45:44.600Z,10.90
2018-05-31T09:48:12.242Z,14.67
2018-05-31T09:50:39.924Z,14.40
2018-05-31T09:53:07.455Z,16.77
2018-05-31T09:55:34.968Z,14.03
2018-05-31T09:58:03.460Z,17.37
2018-05-31T10:00:36.596Z,16.50
2018-05-31T10:03:04.173Z,15.17
2018-05-31T10:05:31.810Z,15.10
2018-05-31T10:07:59.376Z,17.67
2018-05-31T10:10:26.978Z,18.23
2018-05-31T10:12:55.347Z,16.70
2018-05-31T10:15:22.916Z,15.83
2018-05-31T10:17:51.223Z,14.57
2018-05-31T10:20:18.784Z,16.83
2018-05-31T10:22:46.372Z,18.13
2018-05-31T10:25:13.955Z,18.23
2018-05-31T10:27:42.282Z,16.00
2018-05-31T10:30:09.861Z,13.50
2018-05-31T10:32:37.412Z,14.70
2018-05-31T10:35:05.313Z,16.30
2018-05-31T10:37:32.866Z,15.37
2018-05-31T10:40:00.427Z,11.67
2018-05-31T10:42:27.983Z,12.20
2018-05-31T10:44:55.531Z,12.63
2018-05-31T10:47:23.264Z,16.60
2018-05-31T10:49:50.816Z,16.03
2018-05-31T10:52:18.384Z,16.80
2018-05-31T10:54:45.938Z,13.50
2018-05-31T10:57:13.578Z,11.03
2018-05-31T10:59:41.958Z,11.47
2018-05-31T11:02:09.536Z,11.50
2018-05-31T11:04:37.080Z,12.43
2018-05-31T11:07:04.688Z,11.43
2018-05-31T11:09:32.260Z,9.10
2018-05-31T11:11:59.799Z,10.00
2018-05-31T11:14:28.226Z,8.80
2018-05-31T11:16:55.788Z,10.73
2018-05-31T11:19:23.355Z,9.30
2018-05-31T11:21:50.917Z,11.00
2018-05-31T11:24:18.512Z,9.00
2018-05-31T11:26:46.082Z,10.00
2018-05-31T11:29:13.656Z,9.10
2018-05-31T11:31:41.345Z,8.93
2018-05-31T11:34:08.904Z,6.97
2018-05-31T11:36:36.458Z,8.70
2018-05-31T11:39:04.003Z,9.63
2018-05-31T11:41:32.495Z,8.47
2018-05-31T11:44:00.151Z,8.10
2018-05-31T11:46:28.525Z,8.40
2018-05-31T11:48:56.835Z,7.83
2018-05-31T11:51:24.425Z,7.13
2018-05-31T11:53:51.965Z,8.10
2018-05-31T11:56:19.565Z,8.70
2018-05-31T11:58:47.107Z,9.93
2018-05-31T12:01:15.532Z,8.53
2018-05-31T12:03:43.123Z,7.63
2018-05-31T12:06:10.704Z,8.20
2018-05-31T12:08:38.350Z,7.27
2018-05-31T12:11:06.003Z,8.10
2018-05-31T12:13:33.562Z,8.80
2018-05-31T12:16:01.103Z,7.60
2018-05-31T12:18:28.675Z,9.00
2018-05-31T12:20:56.359Z,7.67
2018-05-31T12:23:23.934Z,7.57
2018-05-31T12:25:51.483Z,8.60
2018-05-31T12:28:19.179Z,7.00
2018-05-31T12:30:47.665Z,6.73
2018-05-31T12:33:15.228Z,8.40
2018-05-31T12:35:43.416Z,7.87
2018-05-31T12:38:10.970Z,7.13
2018-05-31T12:40:38.580Z,7.60
2018-05-31T12:43:06.120Z,7.30
2018-05-31T12:45:33.688Z,6.47
2018-05-31T12:48:01.217Z,7.33
2018-05-31T12:50:28.792Z,7.20
2018-05-31T12:52:56.338Z,7.10
2018-05-31T12:55:23.920Z,8.27
2018-05-31T12:57:51.459Z,7.73
2018-05-31T13:00:19.044Z,7.30
2018-05-31T13:02:46.583Z,6.50
2018-05-31T13:05:14.172Z,7.00
2018-05-31T13:07:41.719Z,7.07
2018-05-31T13:10:09.286Z,7.50
2018-05-31T13:12:36.855Z,7.83
2018-05-31T13:15:05.177Z,6.17
2018-05-31T13:17:32.739Z,7.50
2018-05-31T13:20:00.324Z,8.47
2018-05-31T13:22:28.032Z,8.33
2018-05-31T13:24:56.465Z,9.17
2018-05-31T13:27:24.055Z,8.30
2018-05-31T13:29:52.371Z,8.53
2018-05-31T13:32:19.931Z,8.47
2018-05-31T13:34:47.470Z,8.10
2018-05-31T13:37:15.192Z,8.77
2018-05-31T13:39:42.774Z,7.90
2018-05-31T13:42:11.112Z,8.17
2018-05-31T13:44:38.676Z,8.03
2018-05-31T13:47:06.297Z,9.07
2018-05-31T13:49:34.028Z,8.37
2018-05-31T13:52:01.561Z,7.77
2018-05-31T13:54:29.145Z,5.00
2018-05-31T13:56:57.478Z,4.50
2018-05-31T13:59:25.051Z,4.00
2018-05-31T14:01:52.676Z,4.50
2018-05-31T14:04:20.262Z,5.50
2018-05-31T14:06:47.815Z,4.50
2018-05-31T14:09:15.388Z,4.70
2018-05-31T14:11:43.024Z,5.93
2018-05-31T14:14:10.588Z,5.00
2018-05-31T14:16:38.166Z,3.10
2018-05-31T14:19:05.720Z,3.70
2018-05-31T14:21:33.307Z,4.57
2018-05-31T14:24:00.875Z,3.30
2018-05-31T14:26:29.415Z,4.20
2018-05-31T14:28:57.071Z,5.30
2018-05-31T14:31:25.389Z,3.70
2018-05-31T14:33:53.036Z,3.90
2018-05-31T14:36:20.601Z,4.77
2018-05-31T14:38:48.284Z,4.87
2018-05-31T14:41:16.672Z,5.77
2018-05-31T14:43:44.264Z,7.13
2018-05-31T14:46:11.955Z,7.80
2018-05-31T14:48:39.553Z,7.67
2018-05-31T14:51:07.259Z,7.77
2018-05-31T14:53:34.805Z,7.73
2018-05-31T14:56:02.401Z,6.30
2018-05-31T14:58:30.760Z,5.97
2018-05-31T15:00:58.354Z,6.57
2018-05-31T15:03:26.640Z,5.10
2018-05-31T15:05:54.329Z,5.70
2018-05-31T15:08:21.980Z,5.40
2018-05-31T15:10:49.566Z,5.80
2018-05-31T15:13:17.157Z,5.57
2018-05-31T15:15:44.790Z,4.60
2018-05-31T15:18:12.424Z,6.50
2018-05-31T15:20:40.039Z,4.80
2018-05-31T15:23:07.652Z,4.93
2018-05-31T15:25:35.955Z,4.23
2018-05-31T15:28:03.568Z,4.50
2018-05-31T15:30:31.140Z,5.20
2018-05-31T15:32:58.710Z,5.80
2018-05-31T15:35:26.277Z,5.10
2018-05-31T15:37:53.925Z,5.10
2018-05-31T15:40:21.492Z,5.00
2018-05-31T15:42:49.078Z,4.57
2018-05-31T15:45:16.661Z,4.80
2018-05-31T15:47:44.964Z,4.63
2018-05-31T15:50:12.587Z,5.67
2018-05-31T15:52:40.148Z,4.93
2018-05-31T15:55:07.704Z,6.73
2018-05-31T15:57:36.018Z,5.70
2018-05-31T16:00:03.568Z,5.37
2018-05-31T16:02:31.132Z,6.90
2018-05-31T16:04:58.683Z,5.43
2018-05-31T16:07:26.276Z,4.90
2018-05-31T16:09:53.843Z,6.50
2018-05-31T16:12:21.487Z,5.40
2018-05-31T16:14:49.011Z,5.90
2018-05-31T16:17:16.678Z,7.40
2018-05-31T16:19:45.146Z,6.83
2018-05-31T16:22:13.545Z,5.40
2018-05-31T16:24:41.128Z,5.03
2018-05-31T16:27:08.700Z,5.03
2018-05-31T16:29:36.277Z,5.70
2018-05-31T16:32:03.826Z,5.20
2018-05-31T16:34:31.433Z,5.10
2018-05-31T16:36:59.752Z,6.20
2018-05-31T16:39:27.372Z,5.40
2018-05-31T16:41:55.028Z,5.73
2018-05-31T16:44:22.627Z,5.30
2018-05-31T16:46:50.175Z,5.00
2018-05-31T16:49:17.727Z,4.73
2018-05-31T16:51:45.388Z,4.73
2018-05-31T16:54:12.984Z,4.47
2018-05-31T16:56:40.544Z,4.40
2018-05-31T16:59:08.096Z,3.53
2018-05-31T17:01:35.663Z,4.27
2018-05-31T17:04:03.327Z,8.27
2018-05-31T17:06:30.864Z,5.20
2018-05-31T17:08:58.433Z,5.00
2018-05-31T17:11:26.025Z,3.90
2018-05-31T17:13:53.582Z,4.00
2018-05-31T17:16:21.918Z,3.97
2018-05-31T17:18:49.467Z,4.23
2018-05-31T17:21:17.135Z,3.30
2018-05-31T17:23:44.670Z,6.33
2018-05-31T17:26:12.333Z,4.33
2018-05-31T17:28:39.894Z,3.90
2018-05-31T17:31:07.496Z,4.67
2018-05-31T17:33:35.107Z,4.73
2018-05-31T17:36:02.668Z,5.70
2018-05-31T17:38:30.249Z,5.50
2018-05-31T17:40:57.830Z,5.20
2018-05-31T17:43:25.375Z,4.83
2018-05-31T17:45:52.939Z,4.87
2018-05-31T17:48:20.508Z,4.53
2018-05-31T17:50:48.109Z,5.20
2018-05-31T17:53:15.659Z,4.53
2018-05-31T17:55:43.788Z,5.73
2018-05-31T17:58:11.364Z,5.30
2018-05-31T18:00:38.915Z,5.20
2018-05-31T18:03:06.487Z,5.57
2018-05-31T18:05:34.796Z,5.30
2018-05-31T18:08:02.396Z,8.17
2018-05-31T18:10:29.952Z,14.23
2018-05-31T18:12:57.525Z,7.33
2018-05-31T18:15:25.103Z,6.30
2018-05-31T18:17:52.632Z,5.07
2018-05-31T18:20:20.251Z,5.87
2018-05-31T18:22:47.823Z,5.90
2018-05-31T18:25:15.410Z,5.83
2018-05-31T18:27:42.988Z,5.40
2018-05-31T18:30:10.732Z,6.97
2018-05-31T18:32:38.303Z,5.93
2018-05-31T18:35:05.838Z,5.50
2018-05-31T18:37:33.433Z,6.60
2018-05-31T18:40:01.052Z,6.10
2018-05-31T18:42:28.608Z,5.77
2018-05-31T18:44:56.163Z,7.37
2018-05-31T18:47:23.769Z,6.70
2018-05-31T18:49:51.331Z,5.90
2018-05-31T18:52:19.709Z,6.83
2018-05-31T18:54:47.351Z,6.45
2018-05-31T18:57:14.988Z,6.57
2018-05-31T18:59:42.552Z,6.90
2018-05-31T19:02:10.139Z,6.70
2018-05-31T19:04:37.691Z,5.47
2018-05-31T19:07:05.452Z,9.93
2018-05-31T19:09:36.758Z,5.73
2018-05-31T19:12:05.293Z,7.17
2018-05-31T19:14:33.643Z,7.40
2018-05-31T19:17:04.223Z,7.17
2018-05-31T19:19:38.230Z,8.23
2018-05-31T19:22:06.578Z,7.33
2018-05-31T19:24:39.803Z,6.90
2018-05-31T19:27:07.339Z,7.47
2018-05-31T19:29:35.935Z,7.27
2018-05-31T19:32:04.302Z,7.50
2018-05-31T19:34:31.878Z,7.80
2018-05-31T19:37:05.167Z,7.20
2018-05-31T19:39:33.485Z,7.70
2018-05-31T19:42:01.085Z,8.70
2018-05-31T19:44:34.259Z,9.23
2018-05-31T19:47:01.827Z,8.43
2018-05-31T19:49:29.702Z,7.93
2018-05-31T19:52:03.024Z,7.97
2018-05-31T19:54:30.604Z,7.47
2018-05-31T19:56:58.177Z,8.97
2018-05-31T19:59:46.531Z,7.73
2018-05-31T20:02:19.751Z,7.80
2018-05-31T20:04:48.111Z,7.73
2018-05-31T20:07:15.808Z,7.43
2018-05-31T20:09:44.157Z,7.03
2018-05-31T20:12:11.707Z,7.40
2018-05-31T20:14:39.303Z,7.70
2018-05-31T20:17:07.658Z,8.13
2018-05-31T20:19:36.016Z,8.47
2018-05-31T20:22:03.567Z,7.20
2018-05-31T20:24:31.179Z,8.40
2018-05-31T20:26:59.516Z,8.37
2018-05-31T20:29:27.162Z,7.87
2018-05-31T20:31:54.898Z,9.03
2018-05-31T20:34:22.470Z,9.97
2018-05-31T20:36:50.081Z,8.50
2018-05-31T20:39:18.592Z,7.73
2018-05-31T20:41:46.189Z,9.63
2018-05-31T20:44:13.842Z,8.40
2018-05-31T20:46:41.437Z,7.23
2018-05-31T20:49:08.998Z,8.10
2018-05-31T20:51:36.551Z,7.83
2018-05-31T20:54:04.193Z,8.50
2018-05-31T20:56:31.791Z,8.20
2018-05-31T20:59:00.161Z,9.30
2018-05-31T21:01:28.576Z,7.90
2018-05-31T21:03:56.145Z,8.73
2018-05-31T21:06:23.759Z,9.00
2018-05-31T21:08:52.123Z,8.50
2018-05-31T21:11:19.680Z,8.70
2018-05-31T21:13:47.253Z,9.27
2018-05-31T21:16:15.632Z,9.33
2018-05-31T21:18:43.987Z,9.73
2018-05-31T21:21:11.563Z,9.77
2018-05-31T21:23:39.879Z,10.43
2018-05-31T21:26:07.567Z,11.53
2018-05-31T21:28:35.108Z,11.30
2018-05-31T21:31:02.676Z,11.80
2018-05-31T21:33:30.255Z,12.23
2018-05-31T21:35:57.852Z,11.27
2018-05-31T21:38:26.335Z,9.47
2018-05-31T21:40:53.952Z,10.97
2018-05-31T21:43:21.537Z,12.13
2018-05-31T21:45:49.925Z,10.30
2018-05-31T21:48:18.295Z,9.80
2018-05-31T21:50:46.616Z,10.97
2018-05-31T21:53:14.219Z,10.67
2018-05-31T21:55:41.793Z,10.88
2018-05-31T21:58:10.127Z,11.00
2018-05-31T22:00:44.166Z,10.40
2018-05-31T22:03:11.745Z,10.57
2018-05-31T22:05:40.181Z,10.30
2018-05-31T22:08:07.717Z,10.57
2018-05-31T22:10:35.255Z,10.33
2018-05-31T22:13:02.815Z,9.93
2018-05-31T22:15:30.404Z,9.83
2018-05-31T22:17:57.954Z,9.30
2018-05-31T22:20:25.519Z,9.27
2018-05-31T22:22:53.068Z,11.23
2018-05-31T22:25:20.630Z,9.90
2018-05-31T22:27:48.188Z,10.80
2018-05-31T22:30:15.760Z,10.27
2018-05-31T22:32:43.318Z,10.87
2018-05-31T22:35:10.880Z,11.37
2018-05-31T22:37:38.446Z,12.03
2018-05-31T22:40:06.012Z,11.33
2018-05-31T22:42:33.714Z,11.07
2018-05-31T22:45:02.211Z,13.10
2018-05-31T22:47:29.784Z,12.03
2018-05-31T22:49:57.356Z,13.05
2018-05-31T22:52:24.931Z,13.17
2018-05-31T22:54:52.580Z,11.63
2018-05-31T22:57:20.157Z,13.27
2018-05-31T22:59:47.719Z,12.07
2018-05-31T23:02:15.284Z,12.57
2018-05-31T23:04:42.847Z,12.80
2018-05-31T23:07:11.356Z,11.93
2018-05-31T23:09:38.967Z,11.17
2018-05-31T23:12:06.528Z,10.90
2018-05-31T23:14:34.179Z,12.63
2018-05-31T23:17:01.822Z,12.27
2018-05-31T23:19:29.420Z,11.37
2018-05-31T23:21:56.983Z,11.20
2018-05-31T23:24:24.591Z,11.30
2018-05-31T23:26:52.156Z,12.03
2018-05-31T23:29:19.706Z,11.67
2018-05-31T23:31:47.415Z,11.07
2018-05-31T23:34:15.008Z,12.70
2018-05-31T23:36:42.603Z,13.13
2018-05-31T23:39:10.167Z,12.93
2018-05-31T23:41:37.720Z,12.83
2018-05-31T23:44:05.280Z,11.57
2018-05-31T23:46:32.945Z,12.33
2018-05-31T23:49:00.476Z,13.40
2018-05-31T23:51:28.038Z,13.27
2018-05-31T23:53:55.632Z,13.33
2018-05-31T23:56:23.191Z,12.67
2018-05-31T23:58:50.878Z,12.17
